sensor_id;sensor_type;location;lat;lon;timestamp;P1;durP1;ratioP1;P2;durP2;ratioP2
51190;SDS011;37253;48.736;9.294;2023-07-02T00:01:30;1.25;;;1.13;;
51190;SDS011;37253;48.736;9.294;2023-07-02T00:03:30;1.75;;;1.15;;
51190;SDS011;37253;48.736;9.294;2023-07-02T00:05:31;2.20;;;1.20;;
51190;SDS011;37253;48.736;9.294;2023-07-02T00:07:31;1.70;;;1.45;;
51190;SDS011;37253;48.736;9.294;2023-07-02T00:09:32;1.88;;;1.20;;
51190;SDS011;37253;48.736;9.294;2023-07-02T00:11:33;1.30;;;1.17;;
51190;SDS011;37253;48.736;9.294;2023-07-02T00:13:33;1.90;;;1.25;;
51190;SDS011;37253;48.736;9.294;2023-07-02T00:15:33;1.42;;;1.10;;
51190;SDS011;37253;48.736;9.294;2023-07-02T00:17:34;1.58;;;1.27;;
51190;SDS011;37253;48.736;9.294;2023-07-02T00:19:34;1.92;;;1.33;;
51190;SDS011;37253;48.736;9.294;2023-07-02T00:21:34;2.15;;;1.30;;
51190;SDS011;37253;48.736;9.294;2023-07-02T00:23:37;2.20;;;1.27;;
51190;SDS011;37253;48.736;9.294;2023-07-02T00:25:37;2.40;;;1.20;;
51190;SDS011;37253;48.736;9.294;2023-07-02T00:27:37;1.40;;;1.17;;
51190;SDS011;37253;48.736;9.294;2023-07-02T00:29:38;2.30;;;1.20;;
51190;SDS011;37253;48.736;9.294;2023-07-02T00:31:38;1.73;;;1.20;;
51190;SDS011;37253;48.736;9.294;2023-07-02T00:33:38;4.78;;;1.40;;
51190;SDS011;37253;48.736;9.294;2023-07-02T00:35:39;2.58;;;1.25;;
51190;SDS011;37253;48.736;9.294;2023-07-02T00:37:39;1.88;;;1.20;;
51190;SDS011;37253;48.736;9.294;2023-07-02T00:39:40;1.98;;;1.13;;
51190;SDS011;37253;48.736;9.294;2023-07-02T00:41:40;2.00;;;1.20;;
51190;SDS011;37253;48.736;9.294;2023-07-02T00:43:42;1.27;;;1.17;;
51190;SDS011;37253;48.736;9.294;2023-07-02T00:45:45;1.67;;;1.20;;
51190;SDS011;37253;48.736;9.294;2023-07-02T00:47:45;1.75;;;1.15;;
51190;SDS011;37253;48.736;9.294;2023-07-02T00:49:46;4.82;;;1.17;;
51190;SDS011;37253;48.736;9.294;2023-07-02T00:51:46;2.40;;;1.35;;
51190;SDS011;37253;48.736;9.294;2023-07-02T00:53:47;3.58;;;1.10;;
51190;SDS011;37253;48.736;9.294;2023-07-02T00:55:48;2.03;;;1.15;;
51190;SDS011;37253;48.736;9.294;2023-07-02T00:57:49;1.40;;;1.10;;
51190;SDS011;37253;48.736;9.294;2023-07-02T00:59:49;1.25;;;1.15;;
51190;SDS011;37253;48.736;9.294;2023-07-02T01:01:51;1.65;;;1.20;;
51190;SDS011;37253;48.736;9.294;2023-07-02T01:03:59;2.13;;;1.35;;
51190;SDS011;37253;48.736;9.294;2023-07-02T01:06:00;1.70;;;1.20;;
51190;SDS011;37253;48.736;9.294;2023-07-02T01:08:07;1.45;;;1.10;;
51190;SDS011;37253;48.736;9.294;2023-07-02T01:10:08;1.88;;;1.10;;
51190;SDS011;37253;48.736;9.294;2023-07-02T01:12:08;1.67;;;1.30;;
51190;SDS011;37253;48.736;9.294;2023-07-02T01:14:25;2.08;;;1.23;;
51190;SDS011;37253;48.736;9.294;2023-07-02T01:16:27;1.55;;;1.05;;
51190;SDS011;37253;48.736;9.294;2023-07-02T01:18:30;6.18;;;1.63;;
51190;SDS011;37253;48.736;9.294;2023-07-02T01:20:31;1.50;;;1.10;;
51190;SDS011;37253;48.736;9.294;2023-07-02T01:22:31;1.10;;;1.00;;
51190;SDS011;37253;48.736;9.294;2023-07-02T01:24:33;1.27;;;1.10;;
51190;SDS011;37253;48.736;9.294;2023-07-02T01:26:34;1.30;;;1.13;;
51190;SDS011;37253;48.736;9.294;2023-07-02T01:28:34;1.65;;;1.10;;
51190;SDS011;37253;48.736;9.294;2023-07-02T01:30:36;1.25;;;1.10;;
51190;SDS011;37253;48.736;9.294;2023-07-02T01:32:37;2.08;;;1.20;;
51190;SDS011;37253;48.736;9.294;2023-07-02T01:34:37;1.83;;;1.13;;
51190;SDS011;37253;48.736;9.294;2023-07-02T01:36:38;1.30;;;1.20;;
51190;SDS011;37253;48.736;9.294;2023-07-02T01:38:39;1.00;;;0.93;;
51190;SDS011;37253;48.736;9.294;2023-07-02T01:40:39;2.47;;;1.00;;
51190;SDS011;37253;48.736;9.294;2023-07-02T01:42:39;2.50;;;1.20;;
51190;SDS011;37253;48.736;9.294;2023-07-02T01:44:40;1.63;;;1.10;;
51190;SDS011;37253;48.736;9.294;2023-07-02T01:46:40;1.50;;;1.00;;
51190;SDS011;37253;48.736;9.294;2023-07-02T01:48:40;1.38;;;1.10;;
51190;SDS011;37253;48.736;9.294;2023-07-02T01:50:41;2.15;;;1.15;;
51190;SDS011;37253;48.736;9.294;2023-07-02T01:52:41;1.98;;;1.27;;
51190;SDS011;37253;48.736;9.294;2023-07-02T01:54:41;1.60;;;1.10;;
51190;SDS011;37253;48.736;9.294;2023-07-02T01:56:42;1.52;;;1.02;;
51190;SDS011;37253;48.736;9.294;2023-07-02T01:58:42;1.45;;;1.20;;
51190;SDS011;37253;48.736;9.294;2023-07-02T02:00:42;1.10;;;1.00;;
51190;SDS011;37253;48.736;9.294;2023-07-02T02:02:43;2.85;;;1.20;;
51190;SDS011;37253;48.736;9.294;2023-07-02T02:04:43;1.58;;;1.17;;
51190;SDS011;37253;48.736;9.294;2023-07-02T02:06:43;2.05;;;1.20;;
51190;SDS011;37253;48.736;9.294;2023-07-02T02:08:44;1.73;;;1.10;;
51190;SDS011;37253;48.736;9.294;2023-07-02T02:10:44;1.02;;;0.90;;
51190;SDS011;37253;48.736;9.294;2023-07-02T02:12:44;3.85;;;1.23;;
51190;SDS011;37253;48.736;9.294;2023-07-02T02:14:44;3.25;;;0.98;;
51190;SDS011;37253;48.736;9.294;2023-07-02T02:16:45;1.10;;;0.80;;
51190;SDS011;37253;48.736;9.294;2023-07-02T02:18:45;1.77;;;1.00;;
51190;SDS011;37253;48.736;9.294;2023-07-02T02:20:45;1.48;;;0.90;;
51190;SDS011;37253;48.736;9.294;2023-07-02T02:22:46;3.35;;;1.20;;
51190;SDS011;37253;48.736;9.294;2023-07-02T02:24:46;1.77;;;1.20;;
51190;SDS011;37253;48.736;9.294;2023-07-02T02:26:46;1.40;;;1.08;;
51190;SDS011;37253;48.736;9.294;2023-07-02T02:28:47;1.60;;;1.15;;
51190;SDS011;37253;48.736;9.294;2023-07-02T02:30:48;1.20;;;1.00;;
51190;SDS011;37253;48.736;9.294;2023-07-02T02:32:48;2.03;;;1.25;;
51190;SDS011;37253;48.736;9.294;2023-07-02T02:34:49;1.15;;;1.00;;
51190;SDS011;37253;48.736;9.294;2023-07-02T02:36:49;1.63;;;1.10;;
51190;SDS011;37253;48.736;9.294;2023-07-02T02:38:50;1.23;;;1.13;;
51190;SDS011;37253;48.736;9.294;2023-07-02T02:40:50;1.15;;;1.05;;
51190;SDS011;37253;48.736;9.294;2023-07-02T02:42:50;1.00;;;0.90;;
51190;SDS011;37253;48.736;9.294;2023-07-02T02:44:50;1.55;;;1.10;;
51190;SDS011;37253;48.736;9.294;2023-07-02T02:46:51;1.20;;;1.00;;
51190;SDS011;37253;48.736;9.294;2023-07-02T02:48:51;1.60;;;1.20;;
51190;SDS011;37253;48.736;9.294;2023-07-02T02:50:51;1.08;;;0.98;;
51190;SDS011;37253;48.736;9.294;2023-07-02T02:52:52;2.13;;;1.13;;
51190;SDS011;37253;48.736;9.294;2023-07-02T02:54:52;0.90;;;0.90;;
51190;SDS011;37253;48.736;9.294;2023-07-02T02:56:53;1.20;;;1.00;;
51190;SDS011;37253;48.736;9.294;2023-07-02T02:58:53;1.10;;;1.00;;
51190;SDS011;37253;48.736;9.294;2023-07-02T03:00:54;1.25;;;0.90;;
51190;SDS011;37253;48.736;9.294;2023-07-02T03:02:54;1.40;;;1.10;;
51190;SDS011;37253;48.736;9.294;2023-07-02T03:04:55;1.15;;;1.00;;
51190;SDS011;37253;48.736;9.294;2023-07-02T03:06:56;1.40;;;0.98;;
51190;SDS011;37253;48.736;9.294;2023-07-02T03:08:57;1.65;;;0.90;;
51190;SDS011;37253;48.736;9.294;2023-07-02T03:10:57;4.78;;;1.10;;
51190;SDS011;37253;48.736;9.294;2023-07-02T03:12:57;1.00;;;0.90;;
51190;SDS011;37253;48.736;9.294;2023-07-02T03:14:57;1.20;;;1.10;;
51190;SDS011;37253;48.736;9.294;2023-07-02T03:16:58;1.48;;;1.00;;
51190;SDS011;37253;48.736;9.294;2023-07-02T03:18:58;1.95;;;0.98;;
51190;SDS011;37253;48.736;9.294;2023-07-02T03:20:59;1.23;;;0.90;;
51190;SDS011;37253;48.736;9.294;2023-07-02T03:22:59;1.08;;;0.90;;
51190;SDS011;37253;48.736;9.294;2023-07-02T03:25:00;1.35;;;1.00;;
51190;SDS011;37253;48.736;9.294;2023-07-02T03:27:00;1.40;;;1.00;;
51190;SDS011;37253;48.736;9.294;2023-07-02T03:29:00;0.77;;;0.77;;
51190;SDS011;37253;48.736;9.294;2023-07-02T03:31:01;1.10;;;1.00;;
51190;SDS011;37253;48.736;9.294;2023-07-02T03:33:01;1.02;;;0.93;;
51190;SDS011;37253;48.736;9.294;2023-07-02T03:35:01;1.20;;;1.10;;
51190;SDS011;37253;48.736;9.294;2023-07-02T03:37:02;1.10;;;0.90;;
51190;SDS011;37253;48.736;9.294;2023-07-02T03:39:02;1.00;;;0.90;;
51190;SDS011;37253;48.736;9.294;2023-07-02T03:41:03;1.27;;;1.00;;
51190;SDS011;37253;48.736;9.294;2023-07-02T03:43:04;1.08;;;0.90;;
51190;SDS011;37253;48.736;9.294;2023-07-02T03:45:04;0.85;;;0.80;;
51190;SDS011;37253;48.736;9.294;2023-07-02T03:47:05;1.35;;;0.90;;
51190;SDS011;37253;48.736;9.294;2023-07-02T03:49:08;1.30;;;1.02;;
51190;SDS011;37253;48.736;9.294;2023-07-02T03:51:08;1.00;;;0.90;;
51190;SDS011;37253;48.736;9.294;2023-07-02T03:53:08;2.47;;;0.90;;
51190;SDS011;37253;48.736;9.294;2023-07-02T03:55:09;1.10;;;1.00;;
51190;SDS011;37253;48.736;9.294;2023-07-02T03:57:09;1.00;;;0.90;;
51190;SDS011;37253;48.736;9.294;2023-07-02T03:59:10;1.20;;;1.10;;
51190;SDS011;37253;48.736;9.294;2023-07-02T04:01:10;1.52;;;1.00;;
51190;SDS011;37253;48.736;9.294;2023-07-02T04:03:10;1.00;;;0.90;;
51190;SDS011;37253;48.736;9.294;2023-07-02T04:05:11;1.25;;;1.00;;
51190;SDS011;37253;48.736;9.294;2023-07-02T04:07:11;1.15;;;0.88;;
51190;SDS011;37253;48.736;9.294;2023-07-02T04:09:11;1.75;;;1.08;;
51190;SDS011;37253;48.736;9.294;2023-07-02T04:11:12;1.10;;;1.00;;
51190;SDS011;37253;48.736;9.294;2023-07-02T04:13:12;0.82;;;0.73;;
51190;SDS011;37253;48.736;9.294;2023-07-02T04:15:12;1.13;;;1.00;;
51190;SDS011;37253;48.736;9.294;2023-07-02T04:17:13;1.70;;;1.20;;
51190;SDS011;37253;48.736;9.294;2023-07-02T04:19:13;1.75;;;0.90;;
51190;SDS011;37253;48.736;9.294;2023-07-02T04:21:13;1.27;;;1.00;;
51190;SDS011;37253;48.736;9.294;2023-07-02T04:23:14;0.90;;;0.90;;
51190;SDS011;37253;48.736;9.294;2023-07-02T04:25:14;1.13;;;0.80;;
51190;SDS011;37253;48.736;9.294;2023-07-02T04:27:15;1.67;;;1.33;;
51190;SDS011;37253;48.736;9.294;2023-07-02T04:29:19;1.30;;;0.95;;
51190;SDS011;37253;48.736;9.294;2023-07-02T04:31:20;1.15;;;1.00;;
51190;SDS011;37253;48.736;9.294;2023-07-02T04:33:20;1.20;;;1.10;;
51190;SDS011;37253;48.736;9.294;2023-07-02T04:35:21;1.33;;;1.00;;
51190;SDS011;37253;48.736;9.294;2023-07-02T04:37:21;1.00;;;0.90;;
51190;SDS011;37253;48.736;9.294;2023-07-02T04:39:22;1.33;;;1.10;;
51190;SDS011;37253;48.736;9.294;2023-07-02T04:41:22;1.45;;;1.00;;
51190;SDS011;37253;48.736;9.294;2023-07-02T04:43:22;1.10;;;1.00;;
51190;SDS011;37253;48.736;9.294;2023-07-02T04:45:26;2.10;;;1.20;;
51190;SDS011;37253;48.736;9.294;2023-07-02T04:47:36;2.95;;;1.27;;
51190;SDS011;37253;48.736;9.294;2023-07-02T04:49:36;1.23;;;1.10;;
51190;SDS011;37253;48.736;9.294;2023-07-02T04:51:36;1.73;;;1.08;;
51190;SDS011;37253;48.736;9.294;2023-07-02T04:53:37;3.58;;;1.13;;
51190;SDS011;37253;48.736;9.294;2023-07-02T04:55:37;2.65;;;1.30;;
51190;SDS011;37253;48.736;9.294;2023-07-02T04:57:38;1.52;;;1.42;;
51190;SDS011;37253;48.736;9.294;2023-07-02T04:59:38;1.30;;;1.13;;
51190;SDS011;37253;48.736;9.294;2023-07-02T05:01:38;1.52;;;1.20;;
51190;SDS011;37253;48.736;9.294;2023-07-02T05:03:38;3.33;;;1.10;;
51190;SDS011;37253;48.736;9.294;2023-07-02T05:05:39;2.88;;;1.20;;
51190;SDS011;37253;48.736;9.294;2023-07-02T05:07:40;1.48;;;0.90;;
51190;SDS011;37253;48.736;9.294;2023-07-02T05:09:40;2.60;;;1.00;;
51190;SDS011;37253;48.736;9.294;2023-07-02T05:11:41;2.45;;;1.13;;
51190;SDS011;37253;48.736;9.294;2023-07-02T05:13:41;2.10;;;0.98;;
51190;SDS011;37253;48.736;9.294;2023-07-02T05:15:41;3.20;;;1.30;;
51190;SDS011;37253;48.736;9.294;2023-07-02T05:17:41;2.05;;;1.48;;
51190;SDS011;37253;48.736;9.294;2023-07-02T05:19:42;3.38;;;1.30;;
51190;SDS011;37253;48.736;9.294;2023-07-02T05:21:42;2.35;;;1.27;;
51190;SDS011;37253;48.736;9.294;2023-07-02T05:23:42;2.13;;;1.40;;
51190;SDS011;37253;48.736;9.294;2023-07-02T05:25:43;1.73;;;1.05;;
51190;SDS011;37253;48.736;9.294;2023-07-02T05:27:43;1.50;;;1.35;;
51190;SDS011;37253;48.736;9.294;2023-07-02T05:29:43;1.73;;;1.10;;
51190;SDS011;37253;48.736;9.294;2023-07-02T05:31:44;1.67;;;1.30;;
51190;SDS011;37253;48.736;9.294;2023-07-02T05:33:44;2.53;;;1.23;;
51190;SDS011;37253;48.736;9.294;2023-07-02T05:35:45;3.22;;;1.50;;
51190;SDS011;37253;48.736;9.294;2023-07-02T05:37:46;2.83;;;1.40;;
51190;SDS011;37253;48.736;9.294;2023-07-02T05:39:46;1.90;;;1.40;;
51190;SDS011;37253;48.736;9.294;2023-07-02T05:41:46;3.53;;;1.63;;
51190;SDS011;37253;48.736;9.294;2023-07-02T05:43:47;4.35;;;1.50;;
51190;SDS011;37253;48.736;9.294;2023-07-02T05:45:47;1.88;;;1.30;;
51190;SDS011;37253;48.736;9.294;2023-07-02T05:47:47;3.13;;;1.55;;
51190;SDS011;37253;48.736;9.294;2023-07-02T05:49:48;1.95;;;1.50;;
51190;SDS011;37253;48.736;9.294;2023-07-02T05:51:49;2.67;;;1.67;;
51190;SDS011;37253;48.736;9.294;2023-07-02T05:53:49;1.48;;;1.30;;
51190;SDS011;37253;48.736;9.294;2023-07-02T05:55:50;4.00;;;1.63;;
51190;SDS011;37253;48.736;9.294;2023-07-02T05:57:50;1.70;;;1.40;;
51190;SDS011;37253;48.736;9.294;2023-07-02T05:59:51;2.17;;;1.50;;
51190;SDS011;37253;48.736;9.294;2023-07-02T06:01:51;4.50;;;1.98;;
51190;SDS011;37253;48.736;9.294;2023-07-02T06:03:51;4.93;;;1.40;;
51190;SDS011;37253;48.736;9.294;2023-07-02T06:05:52;4.38;;;1.65;;
51190;SDS011;37253;48.736;9.294;2023-07-02T06:07:52;2.08;;;1.70;;
51190;SDS011;37253;48.736;9.294;2023-07-02T06:09:52;2.50;;;1.60;;
51190;SDS011;37253;48.736;9.294;2023-07-02T06:11:53;3.15;;;1.85;;
51190;SDS011;37253;48.736;9.294;2023-07-02T06:13:53;4.30;;;2.00;;
51190;SDS011;37253;48.736;9.294;2023-07-02T06:15:54;2.70;;;1.88;;
51190;SDS011;37253;48.736;9.294;2023-07-02T06:17:55;4.40;;;2.25;;
51190;SDS011;37253;48.736;9.294;2023-07-02T06:19:55;2.97;;;2.00;;
51190;SDS011;37253;48.736;9.294;2023-07-02T06:21:55;2.50;;;1.70;;
51190;SDS011;37253;48.736;9.294;2023-07-02T06:23:56;2.22;;;1.70;;
51190;SDS011;37253;48.736;9.294;2023-07-02T06:25:57;3.20;;;1.98;;
51190;SDS011;37253;48.736;9.294;2023-07-02T06:27:59;3.22;;;1.98;;
51190;SDS011;37253;48.736;9.294;2023-07-02T06:29:59;2.42;;;1.80;;
51190;SDS011;37253;48.736;9.294;2023-07-02T06:32:00;4.40;;;2.10;;
51190;SDS011;37253;48.736;9.294;2023-07-02T06:34:00;4.00;;;2.00;;
51190;SDS011;37253;48.736;9.294;2023-07-02T06:36:00;2.83;;;1.70;;
51190;SDS011;37253;48.736;9.294;2023-07-02T06:38:01;3.88;;;2.00;;
51190;SDS011;37253;48.736;9.294;2023-07-02T06:40:01;3.47;;;2.13;;
51190;SDS011;37253;48.736;9.294;2023-07-02T06:42:01;4.03;;;2.33;;
51190;SDS011;37253;48.736;9.294;2023-07-02T06:44:02;2.35;;;2.08;;
51190;SDS011;37253;48.736;9.294;2023-07-02T06:46:02;4.25;;;2.28;;
51190;SDS011;37253;48.736;9.294;2023-07-02T06:48:03;3.53;;;2.42;;
51190;SDS011;37253;48.736;9.294;2023-07-02T06:50:03;4.15;;;2.45;;
51190;SDS011;37253;48.736;9.294;2023-07-02T06:52:04;3.97;;;2.60;;
51190;SDS011;37253;48.736;9.294;2023-07-02T06:54:04;4.05;;;2.58;;
51190;SDS011;37253;48.736;9.294;2023-07-02T06:56:05;4.57;;;2.80;;
51190;SDS011;37253;48.736;9.294;2023-07-02T06:58:05;7.45;;;3.22;;
51190;SDS011;37253;48.736;9.294;2023-07-02T07:00:06;6.53;;;3.00;;
51190;SDS011;37253;48.736;9.294;2023-07-02T07:02:08;3.35;;;2.80;;
51190;SDS011;37253;48.736;9.294;2023-07-02T07:04:08;6.25;;;3.05;;
51190;SDS011;37253;48.736;9.294;2023-07-02T07:06:09;5.95;;;2.97;;
51190;SDS011;37253;48.736;9.294;2023-07-02T07:08:09;5.53;;;2.88;;
51190;SDS011;37253;48.736;9.294;2023-07-02T07:10:09;4.65;;;3.20;;
51190;SDS011;37253;48.736;9.294;2023-07-02T07:12:10;4.15;;;3.13;;
51190;SDS011;37253;48.736;9.294;2023-07-02T07:14:10;5.40;;;3.58;;
51190;SDS011;37253;48.736;9.294;2023-07-02T07:16:11;6.68;;;4.30;;
51190;SDS011;37253;48.736;9.294;2023-07-02T07:18:18;5.60;;;3.72;;
51190;SDS011;37253;48.736;9.294;2023-07-02T07:20:18;8.35;;;4.10;;
51190;SDS011;37253;48.736;9.294;2023-07-02T07:22:19;6.47;;;4.03;;
51190;SDS011;37253;48.736;9.294;2023-07-02T07:24:19;5.80;;;4.15;;
51190;SDS011;37253;48.736;9.294;2023-07-02T07:26:19;9.00;;;4.60;;
51190;SDS011;37253;48.736;9.294;2023-07-02T07:28:20;6.47;;;4.53;;
51190;SDS011;37253;48.736;9.294;2023-07-02T07:30:20;7.18;;;4.45;;
51190;SDS011;37253;48.736;9.294;2023-07-02T07:32:24;7.50;;;4.05;;
51190;SDS011;37253;48.736;9.294;2023-07-02T07:34:24;6.13;;;4.63;;
51190;SDS011;37253;48.736;9.294;2023-07-02T07:36:25;7.63;;;4.45;;
51190;SDS011;37253;48.736;9.294;2023-07-02T07:38:25;8.30;;;4.38;;
51190;SDS011;37253;48.736;9.294;2023-07-02T07:40:26;6.93;;;4.50;;
51190;SDS011;37253;48.736;9.294;2023-07-02T07:42:26;6.20;;;4.03;;
51190;SDS011;37253;48.736;9.294;2023-07-02T07:44:26;5.70;;;4.00;;
51190;SDS011;37253;48.736;9.294;2023-07-02T07:46:30;10.55;;;4.90;;
51190;SDS011;37253;48.736;9.294;2023-07-02T07:48:31;5.55;;;4.15;;
51190;SDS011;37253;48.736;9.294;2023-07-02T07:50:31;6.90;;;4.50;;
51190;SDS011;37253;48.736;9.294;2023-07-02T07:52:31;6.65;;;4.15;;
51190;SDS011;37253;48.736;9.294;2023-07-02T07:54:32;7.07;;;4.72;;
51190;SDS011;37253;48.736;9.294;2023-07-02T07:56:34;8.75;;;4.30;;
51190;SDS011;37253;48.736;9.294;2023-07-02T07:58:35;6.93;;;4.88;;
51190;SDS011;37253;48.736;9.294;2023-07-02T08:00:35;7.28;;;4.47;;
51190;SDS011;37253;48.736;9.294;2023-07-02T08:02:36;7.15;;;4.47;;
51190;SDS011;37253;48.736;9.294;2023-07-02T08:04:36;9.02;;;4.65;;
51190;SDS011;37253;48.736;9.294;2023-07-02T08:06:36;7.22;;;4.78;;
51190;SDS011;37253;48.736;9.294;2023-07-02T08:08:37;7.13;;;5.20;;
51190;SDS011;37253;48.736;9.294;2023-07-02T08:10:37;8.02;;;5.15;;
51190;SDS011;37253;48.736;9.294;2023-07-02T08:12:38;7.40;;;4.78;;
51190;SDS011;37253;48.736;9.294;2023-07-02T08:14:38;8.77;;;5.25;;
51190;SDS011;37253;48.736;9.294;2023-07-02T08:16:38;6.68;;;4.82;;
51190;SDS011;37253;48.736;9.294;2023-07-02T08:18:39;6.85;;;4.65;;
51190;SDS011;37253;48.736;9.294;2023-07-02T08:20:39;6.18;;;4.25;;
51190;SDS011;37253;48.736;9.294;2023-07-02T08:22:39;5.47;;;4.43;;
51190;SDS011;37253;48.736;9.294;2023-07-02T08:24:40;7.38;;;5.10;;
51190;SDS011;37253;48.736;9.294;2023-07-02T08:26:40;6.90;;;5.03;;
51190;SDS011;37253;48.736;9.294;2023-07-02T08:28:41;6.03;;;4.70;;
51190;SDS011;37253;48.736;9.294;2023-07-02T08:30:41;7.30;;;4.95;;
51190;SDS011;37253;48.736;9.294;2023-07-02T08:32:41;7.47;;;4.75;;
51190;SDS011;37253;48.736;9.294;2023-07-02T08:34:42;8.55;;;5.40;;
51190;SDS011;37253;48.736;9.294;2023-07-02T08:36:42;8.35;;;5.60;;
51190;SDS011;37253;48.736;9.294;2023-07-02T08:38:43;7.85;;;5.00;;
51190;SDS011;37253;48.736;9.294;2023-07-02T08:40:43;7.45;;;4.82;;
51190;SDS011;37253;48.736;9.294;2023-07-02T08:42:47;8.60;;;4.75;;
51190;SDS011;37253;48.736;9.294;2023-07-02T08:44:48;10.07;;;4.88;;
51190;SDS011;37253;48.736;9.294;2023-07-02T08:46:53;15.38;;;5.45;;
51190;SDS011;37253;48.736;9.294;2023-07-02T08:48:56;14.85;;;5.50;;
51190;SDS011;37253;48.736;9.294;2023-07-02T08:50:56;8.05;;;5.30;;
51190;SDS011;37253;48.736;9.294;2023-07-02T08:52:56;10.50;;;6.22;;
51190;SDS011;37253;48.736;9.294;2023-07-02T08:54:57;10.68;;;7.20;;
51190;SDS011;37253;48.736;9.294;2023-07-02T08:56:57;11.43;;;5.70;;
51190;SDS011;37253;48.736;9.294;2023-07-02T08:58:57;9.88;;;6.30;;
51190;SDS011;37253;48.736;9.294;2023-07-02T09:01:08;7.93;;;5.57;;
51190;SDS011;37253;48.736;9.294;2023-07-02T09:03:13;10.07;;;6.80;;
51190;SDS011;37253;48.736;9.294;2023-07-02T09:05:14;10.25;;;6.70;;
51190;SDS011;37253;48.736;9.294;2023-07-02T09:07:15;11.40;;;7.00;;
51190;SDS011;37253;48.736;9.294;2023-07-02T09:09:15;10.55;;;7.10;;
51190;SDS011;37253;48.736;9.294;2023-07-02T09:11:15;8.65;;;6.45;;
51190;SDS011;37253;48.736;9.294;2023-07-02T09:13:19;11.25;;;6.47;;
51190;SDS011;37253;48.736;9.294;2023-07-02T09:15:20;9.52;;;6.72;;
51190;SDS011;37253;48.736;9.294;2023-07-02T09:17:20;10.90;;;7.03;;
51190;SDS011;37253;48.736;9.294;2023-07-02T09:19:21;10.40;;;6.88;;
51190;SDS011;37253;48.736;9.294;2023-07-02T09:21:21;10.93;;;7.32;;
51190;SDS011;37253;48.736;9.294;2023-07-02T09:23:22;9.35;;;6.55;;
51190;SDS011;37253;48.736;9.294;2023-07-02T09:25:33;10.52;;;6.95;;
51190;SDS011;37253;48.736;9.294;2023-07-02T09:27:38;11.60;;;7.18;;
51190;SDS011;37253;48.736;9.294;2023-07-02T09:29:39;10.82;;;7.53;;
51190;SDS011;37253;48.736;9.294;2023-07-02T09:31:43;12.70;;;6.93;;
51190;SDS011;37253;48.736;9.294;2023-07-02T09:33:44;11.60;;;7.03;;
51190;SDS011;37253;48.736;9.294;2023-07-02T09:35:44;10.15;;;6.88;;
51190;SDS011;37253;48.736;9.294;2023-07-02T09:37:45;12.93;;;7.25;;
51190;SDS011;37253;48.736;9.294;2023-07-02T09:39:48;10.35;;;6.53;;
51190;SDS011;37253;48.736;9.294;2023-07-02T09:41:49;11.05;;;6.85;;
51190;SDS011;37253;48.736;9.294;2023-07-02T09:43:50;12.98;;;7.70;;
51190;SDS011;37253;48.736;9.294;2023-07-02T09:45:52;10.68;;;6.85;;
51190;SDS011;37253;48.736;9.294;2023-07-02T09:50:02;11.05;;;7.07;;
51190;SDS011;37253;48.736;9.294;2023-07-02T09:52:09;9.30;;;6.63;;
51190;SDS011;37253;48.736;9.294;2023-07-02T09:54:10;9.40;;;6.57;;
51190;SDS011;37253;48.736;9.294;2023-07-02T09:56:10;10.13;;;6.88;;
51190;SDS011;37253;48.736;9.294;2023-07-02T09:58:11;10.85;;;6.68;;
51190;SDS011;37253;48.736;9.294;2023-07-02T10:00:12;9.13;;;6.43;;
51190;SDS011;37253;48.736;9.294;2023-07-02T10:02:13;8.70;;;6.88;;
51190;SDS011;37253;48.736;9.294;2023-07-02T10:04:14;9.30;;;6.68;;
51190;SDS011;37253;48.736;9.294;2023-07-02T10:06:15;9.13;;;6.65;;
51190;SDS011;37253;48.736;9.294;2023-07-02T10:08:16;10.13;;;6.25;;
51190;SDS011;37253;48.736;9.294;2023-07-02T10:10:26;11.35;;;6.97;;
51190;SDS011;37253;48.736;9.294;2023-07-02T10:12:28;8.05;;;6.32;;
51190;SDS011;37253;48.736;9.294;2023-07-02T10:14:41;9.23;;;6.95;;
51190;SDS011;37253;48.736;9.294;2023-07-02T10:16:54;8.73;;;5.93;;
51190;SDS011;37253;48.736;9.294;2023-07-02T10:18:55;9.43;;;7.20;;
51190;SDS011;37253;48.736;9.294;2023-07-02T10:20:56;11.88;;;7.28;;
51190;SDS011;37253;48.736;9.294;2023-07-02T10:22:56;10.40;;;6.85;;
51190;SDS011;37253;48.736;9.294;2023-07-02T10:24:57;10.25;;;6.97;;
51190;SDS011;37253;48.736;9.294;2023-07-02T10:27:00;8.57;;;6.70;;
51190;SDS011;37253;48.736;9.294;2023-07-02T10:29:01;9.80;;;6.75;;
51190;SDS011;37253;48.736;9.294;2023-07-02T10:31:02;10.60;;;6.88;;
51190;SDS011;37253;48.736;9.294;2023-07-02T10:33:09;9.70;;;7.10;;
51190;SDS011;37253;48.736;9.294;2023-07-02T10:35:14;9.45;;;6.75;;
51190;SDS011;37253;48.736;9.294;2023-07-02T10:37:18;9.48;;;6.93;;
51190;SDS011;37253;48.736;9.294;2023-07-02T10:39:18;8.73;;;6.20;;
51190;SDS011;37253;48.736;9.294;2023-07-02T10:41:28;10.05;;;6.72;;
51190;SDS011;37253;48.736;9.294;2023-07-02T10:43:30;11.15;;;7.60;;
51190;SDS011;37253;48.736;9.294;2023-07-02T10:45:32;10.57;;;7.22;;
51190;SDS011;37253;48.736;9.294;2023-07-02T10:47:33;11.18;;;7.38;;
51190;SDS011;37253;48.736;9.294;2023-07-02T10:49:33;10.55;;;6.95;;
51190;SDS011;37253;48.736;9.294;2023-07-02T10:51:34;8.75;;;6.95;;
51190;SDS011;37253;48.736;9.294;2023-07-02T10:53:34;9.35;;;7.03;;
51190;SDS011;37253;48.736;9.294;2023-07-02T10:55:35;9.23;;;6.68;;
51190;SDS011;37253;48.736;9.294;2023-07-02T10:57:35;10.77;;;7.15;;
51190;SDS011;37253;48.736;9.294;2023-07-02T10:59:35;8.88;;;7.18;;
51190;SDS011;37253;48.736;9.294;2023-07-02T11:01:36;9.95;;;7.45;;
51190;SDS011;37253;48.736;9.294;2023-07-02T11:03:36;10.60;;;7.47;;
51190;SDS011;37253;48.736;9.294;2023-07-02T11:05:36;9.50;;;7.05;;
51190;SDS011;37253;48.736;9.294;2023-07-02T11:07:38;9.88;;;7.57;;
51190;SDS011;37253;48.736;9.294;2023-07-02T11:09:39;9.90;;;7.47;;
51190;SDS011;37253;48.736;9.294;2023-07-02T11:11:48;11.10;;;7.20;;
51190;SDS011;37253;48.736;9.294;2023-07-02T11:13:53;9.02;;;7.03;;
51190;SDS011;37253;48.736;9.294;2023-07-02T11:15:53;9.48;;;6.72;;
51190;SDS011;37253;48.736;9.294;2023-07-02T11:17:53;9.77;;;7.32;;
51190;SDS011;37253;48.736;9.294;2023-07-02T11:19:54;9.73;;;7.32;;
51190;SDS011;37253;48.736;9.294;2023-07-02T11:21:55;9.18;;;6.53;;
51190;SDS011;37253;48.736;9.294;2023-07-02T11:24:03;10.90;;;7.15;;
51190;SDS011;37253;48.736;9.294;2023-07-02T11:26:05;10.57;;;7.15;;
51190;SDS011;37253;48.736;9.294;2023-07-02T11:28:05;11.20;;;7.45;;
51190;SDS011;37253;48.736;9.294;2023-07-02T11:30:06;10.65;;;7.50;;
51190;SDS011;37253;48.736;9.294;2023-07-02T11:32:07;10.40;;;7.57;;
51190;SDS011;37253;48.736;9.294;2023-07-02T11:34:15;13.32;;;8.20;;
51190;SDS011;37253;48.736;9.294;2023-07-02T11:36:20;11.07;;;8.27;;
51190;SDS011;37253;48.736;9.294;2023-07-02T11:38:22;11.07;;;7.65;;
51190;SDS011;37253;48.736;9.294;2023-07-02T11:40:22;11.85;;;8.48;;
51190;SDS011;37253;48.736;9.294;2023-07-02T11:42:22;14.18;;;8.18;;
51190;SDS011;37253;48.736;9.294;2023-07-02T11:44:23;10.43;;;7.68;;
51190;SDS011;37253;48.736;9.294;2023-07-02T11:46:23;12.63;;;7.95;;
51190;SDS011;37253;48.736;9.294;2023-07-02T11:48:23;12.75;;;8.07;;
51190;SDS011;37253;48.736;9.294;2023-07-02T11:50:24;10.63;;;7.70;;
51190;SDS011;37253;48.736;9.294;2023-07-02T11:52:24;14.45;;;7.70;;
51190;SDS011;37253;48.736;9.294;2023-07-02T11:54:25;12.25;;;8.65;;
51190;SDS011;37253;48.736;9.294;2023-07-02T11:56:25;11.02;;;8.10;;
51190;SDS011;37253;48.736;9.294;2023-07-02T11:58:26;11.30;;;7.90;;
51190;SDS011;37253;48.736;9.294;2023-07-02T12:00:26;11.75;;;8.52;;
51190;SDS011;37253;48.736;9.294;2023-07-02T12:02:26;11.57;;;8.30;;
51190;SDS011;37253;48.736;9.294;2023-07-02T12:04:27;10.48;;;7.50;;
51190;SDS011;37253;48.736;9.294;2023-07-02T12:06:27;10.20;;;7.28;;
51190;SDS011;37253;48.736;9.294;2023-07-02T12:08:27;11.13;;;7.60;;
51190;SDS011;37253;48.736;9.294;2023-07-02T12:10:28;10.50;;;7.72;;